Time;durP1;ratioP1;P1;durP2;ratioP2;P2;SDS_P1;SDS_P2;PMS_P1;PMS_P2;Temp;Humidity;BMP_temperature;BMP_pressure;BME280_temperature;BME280_humidity;BME280_pressure;Samples;Min_cycle;Max_cycle;Signal;HPM_P1;HPM_P2
2022/05/25 00:04:23;;;;;;;19.42;10.95;;;11.80;99.90;;;;;;21205287;28;20115;-49
2022/05/25 00:14:26;;;;;;;17.25;10.15;;;11.90;99.90;;;;;;21198598;27;20369;-59
2022/05/25 00:24:28;;;;;;;16.08;9.02;;;12.00;99.90;;;;;;21218197;27;20092;-58
2022/05/25 00:34:31;;;;;;;16.98;9.05;;;12.00;99.90;;;;;;21216078;27;20027;-58
2022/05/25 00:44:33;;;;;;;14.43;8.95;;;12.10;99.90;;;;;;21216904;27;20051;-59
2022/05/25 00:54:48;;;;;;;15.55;8.75;;;12.00;99.90;;;;;;21216053;27;20031;-58
2022/05/25 01:04:50;;;;;;;14.35;9.18;;;12.00;99.90;;;;;;21202335;27;20069;-58
2022/05/25 01:15:08;;;;;;;17.63;9.18;;;12.00;99.90;;;;;;21198556;27;20039;-59
2022/05/25 01:25:36;;;;;;;15.70;10.05;;;12.00;99.90;;;;;;21211786;27;20045;-50
2022/05/25 01:36:01;;;;;;;19.95;10.90;;;12.10;99.90;;;;;;21213616;27;20148;-58
2022/05/25 01:46:10;;;;;;;23.02;12.25;;;12.10;99.90;;;;;;21214747;27;20047;-59
2022/05/25 01:56:16;;;;;;;27.65;15.05;;;12.00;99.90;;;;;;21190920;27;20508;-51
2022/05/25 02:06:40;;;;;;;25.80;13.73;;;11.90;99.90;;;;;;21204121;27;20047;-50
2022/05/25 02:16:55;;;;;;;25.88;13.68;;;11.90;99.90;;;;;;21206434;27;20039;-59
2022/05/25 02:27:21;;;;;;;26.40;13.20;;;11.90;99.90;;;;;;21213844;27;20388;-50
2022/05/25 02:37:26;;;;;;;21.48;12.77;;;12.10;99.90;;;;;;21195716;27;20031;-51
2022/05/25 02:47:29;;;;;;;24.75;13.52;;;12.20;99.90;;;;;;21205132;27;20042;-50
2022/05/25 02:57:33;;;;;;;22.13;12.68;;;12.30;99.90;;;;;;21193686;27;20328;-52
2022/05/25 03:07:36;;;;;;;19.33;11.82;;;12.40;99.90;;;;;;21213313;28;20104;-52
2022/05/25 03:17:40;;;;;;;20.02;12.68;;;12.60;99.90;;;;;;21209766;28;20039;-51
2022/05/25 03:27:44;;;;;;;13.98;10.43;;;12.70;99.90;;;;;;21205494;28;20048;-50
2022/05/25 03:37:46;;;;;;;16.15;10.43;;;12.80;99.90;;;;;;21209641;28;20472;-52
2022/05/25 03:47:48;;;;;;;16.77;10.20;;;12.90;99.90;;;;;;21193737;28;20043;-59
2022/05/25 03:57:52;;;;;;;15.63;9.43;;;12.90;99.90;;;;;;21201811;27;20100;-50
2022/05/25 04:07:56;;;;;;;14.63;8.40;;;13.00;99.90;;;;;;21187951;27;20035;-60
2022/05/25 04:17:59;;;;;;;13.63;8.70;;;13.10;99.90;;;;;;21211661;27;20373;-59
2022/05/25 04:28:01;;;;;;;11.45;7.55;;;13.30;99.90;;;;;;21223318;27;20400;-59
2022/05/25 04:38:06;;;;;;;7.95;5.78;;;13.50;99.90;;;;;;21224185;27;20091;-51
2022/05/25 04:48:13;;;;;;;8.98;5.50;;;13.70;99.90;;;;;;21196821;27;20088;-60
2022/05/25 04:58:44;;;;;;;7.72;5.13;;;13.70;99.90;;;;;;21201243;27;20377;-60
2022/05/25 05:08:46;;;;;;;9.35;5.28;;;13.80;99.90;;;;;;21203030;27;20072;-60
2022/05/25 05:18:49;;;;;;;8.20;4.43;;;14.00;99.90;;;;;;21219758;27;20069;-60
2022/05/25 05:29:01;;;;;;;9.35;4.75;;;14.20;99.90;;;;;;21185896;27;20035;-60
2022/05/25 05:39:07;;;;;;;7.20;4.30;;;14.50;99.90;;;;;;21217393;27;20088;-60
2022/05/25 05:49:11;;;;;;;12.40;4.35;;;15.00;99.90;;;;;;21210078;27;20046;-61
2022/05/25 05:59:14;;;;;;;9.30;4.35;;;15.30;99.90;;;;;;21194608;27;20105;-60
2022/05/25 06:09:17;;;;;;;9.23;3.85;;;15.60;99.90;;;;;;21192749;27;20448;-60
2022/05/25 06:19:26;;;;;;;5.97;3.60;;;15.80;99.90;;;;;;21213031;27;20064;-59
2022/05/25 06:29:28;;;;;;;5.43;3.33;;;15.50;99.90;;;;;;21190170;27;20039;-60
2022/05/25 06:39:37;;;;;;;4.72;3.17;;;15.70;99.90;;;;;;21200771;27;20031;-60
2022/05/25 06:49:40;;;;;;;5.80;3.45;;;16.30;99.90;;;;;;21194534;27;20051;-61
2022/05/25 06:59:43;;;;;;;6.00;3.33;;;17.40;99.90;;;;;;21202798;27;20047;-54
2022/05/25 07:09:46;;;;;;;6.45;2.80;;;19.20;99.90;;;;;;21201199;27;20031;-53
2022/05/25 07:19:48;;;;;;;4.13;3.08;;;18.90;99.90;;;;;;21208607;28;20092;-53
2022/05/25 07:29:50;;;;;;;5.25;3.47;;;18.60;99.90;;;;;;21217024;27;20125;-61
2022/05/25 07:40:12;;;;;;;5.05;2.65;;;19.20;99.90;;;;;;21221004;27;20084;-61
2022/05/25 07:50:14;;;;;;;5.78;2.38;;;19.20;99.90;;;;;;21209006;27;20054;-60
2022/05/25 08:00:28;;;;;;;5.18;2.85;;;19.30;99.90;;;;;;21237023;27;20047;-60
2022/05/25 08:10:32;;;;;;;7.03;3.53;;;18.90;99.90;;;;;;21207838;27;20023;-50
2022/05/25 08:20:34;;;;;;;8.35;3.50;;;18.00;99.90;;;;;;21208543;27;20107;-51
2022/05/25 08:30:39;;;;;;;6.47;2.72;;;18.50;99.90;;;;;;21210030;27;20031;-51
2022/05/25 08:40:45;;;;;;;5.80;3.00;;;18.70;99.90;;;;;;21200045;27;20035;-54
2022/05/25 08:50:54;;;;;;;5.10;2.60;;;19.20;99.90;;;;;;21118468;28;20062;-53
2022/05/25 09:01:01;;;;;;;4.93;2.40;;;19.90;99.90;;;;;;21062603;28;20036;-61
2022/05/25 09:11:16;;;;;;;4.85;2.50;;;20.60;99.90;;;;;;21093168;28;20040;-61
2022/05/25 09:21:24;;;;;;;9.43;2.80;;;21.10;99.90;;;;;;21062481;28;20599;-62
2022/05/25 09:31:31;;;;;;;7.00;2.95;;;21.20;99.90;;;;;;21059043;28;20105;-61
2022/05/25 09:41:34;;;;;;;9.15;2.72;;;21.30;99.90;;;;;;21119327;28;20425;-61
2022/05/25 09:51:51;;;;;;;3.72;2.08;;;21.50;99.90;;;;;;21185935;27;20047;-55
2022/05/25 10:01:55;;;;;;;4.47;2.40;;;21.50;99.90;;;;;;21210208;27;20055;-54
2022/05/25 10:12:18;;;;;;;3.58;2.20;;;21.40;99.90;;;;;;21210877;27;20068;-61
2022/05/25 10:22:33;;;;;;;7.03;3.75;;;20.80;99.90;;;;;;21207906;27;20035;-61
2022/05/25 10:43:16;;;;;;;6.03;3.10;;;19.60;99.90;;;;;;21194233;27;20059;-62
2022/05/25 10:53:37;;;;;;;5.45;3.92;;;19.20;99.90;;;;;;21210178;27;20065;-60
2022/05/25 11:03:50;;;;;;;6.95;4.35;;;19.20;99.90;;;;;;21187876;27;20035;-60
2022/05/25 11:14:06;;;;;;;6.70;4.38;;;19.40;99.90;;;;;;21208743;28;20439;-60
2022/05/25 11:24:34;;;;;;;8.98;4.65;;;19.10;99.90;;;;;;21196002;28;20027;-61
2022/05/25 11:35:10;;;;;;;7.00;3.92;;;19.60;99.90;;;;;;21198060;28;20039;-62
2022/05/25 11:45:44;;;;;;;5.60;2.58;;;20.00;99.90;;;;;;21200090;28;20108;-63
2022/05/25 11:55:55;;;;;;;3.40;2.30;;;22.00;99.90;;;;;;20867450;28;20486;-64
2022/05/25 12:06:21;;;;;;;5.30;2.55;;;23.50;99.90;;;;;;20863309;28;20053;-63
2022/05/25 12:16:33;;;;;;;4.50;2.03;;;24.40;99.70;;;;;;20874240;28;20673;-64
2022/05/25 12:26:38;;;;;;;5.13;3.40;;;23.80;98.30;;;;;;20966256;27;20047;-62
2022/05/25 12:36:42;;;;;;;7.13;3.30;;;21.70;99.90;;;;;;21224980;27;20035;-62
2022/05/25 12:57:24;;;;;;;5.47;3.88;;;18.80;99.90;;;;;;21205913;27;20072;-61
2022/05/25 13:07:38;;;;;;;5.60;3.90;;;18.80;99.90;;;;;;21211868;27;20062;-54
2022/05/25 13:17:45;;;;;;;8.32;4.70;;;19.50;99.90;;;;;;21216489;27;20504;-61
2022/05/25 13:28:30;;;;;;;6.05;4.65;;;19.70;99.90;;;;;;21199862;27;20088;-61
2022/05/25 13:38:41;;;;;;;9.32;5.45;;;19.40;99.90;;;;;;21140528;27;20558;-60
2022/05/25 13:48:53;;;;;;;7.72;4.78;;;19.10;99.90;;;;;;21194575;27;20500;-62
2022/05/25 13:59:06;;;;;;;6.90;5.03;;;19.00;99.90;;;;;;21217121;27;20385;-60
2022/05/25 14:19:34;;;;;;;7.53;4.78;;;22.10;99.90;;;;;;21211396;27;20064;-60
2022/05/25 14:29:39;;;;;;;9.68;4.18;;;20.90;99.90;;;;;;21185822;27;20039;-61
2022/05/25 14:39:43;;;;;;;7.05;4.50;;;20.30;99.90;;;;;;21209306;27;20035;-60
2022/05/25 14:49:55;;;;;;;19.90;4.97;;;20.40;99.90;;;;;;21200615;27;20084;-64
2022/05/25 15:00:02;;;;;;;5.80;4.47;;;21.10;99.90;;;;;;21184878;27;20081;-55
2022/05/25 15:10:11;;;;;;;4.47;4.03;;;21.80;99.90;;;;;;21213400;27;20056;-62
2022/05/25 15:20:21;;;;;;;9.95;4.72;;;21.70;99.90;;;;;;21188733;28;20039;-61
2022/05/25 15:30:30;;;;;;;8.50;4.60;;;22.40;99.90;;;;;;21211744;28;20027;-61
2022/05/25 15:40:36;;;;;;;6.30;3.83;;;21.50;99.90;;;;;;21204248;28;20092;-59
2022/05/25 15:50:42;;;;;;;8.90;5.38;;;20.10;99.90;;;;;;21220552;27;20055;-59
2022/05/25 16:00:51;;;;;;;8.00;4.80;;;19.00;99.90;;;;;;21207537;27;20535;-50
2022/05/25 16:10:54;;;;;;;5.45;4.30;;;18.70;99.90;;;;;;21224294;27;20035;-59
2022/05/25 16:20:59;;;;;;;5.65;4.82;;;18.00;99.90;;;;;;21216903;27;20111;-51
2022/05/25 16:31:02;;;;;;;10.70;5.53;;;17.60;99.90;;;;;;21222567;27;20106;-59
2022/05/25 16:41:05;;;;;;;12.05;6.45;;;17.90;99.90;;;;;;21190818;27;20093;-51
2022/05/25 16:51:09;;;;;;;9.77;6.13;;;18.00;99.90;;;;;;21108253;28;20044;-59
2022/05/25 17:01:13;;;;;;;10.45;5.82;;;17.60;99.90;;;;;;21074157;28;20097;-59
2022/05/25 17:11:16;;;;;;;9.02;5.80;;;17.30;99.90;;;;;;21085644;28;20555;-59
2022/05/25 17:21:22;;;;;;;5.95;3.90;;;16.90;99.90;;;;;;21074936;28;20528;-59
2022/05/25 17:31:25;;;;;;;15.35;6.07;;;16.40;99.90;;;;;;21079745;28;20036;-59
2022/05/25 17:51:50;;;;;;;3.13;1.38;;;16.30;99.90;;;;;;21187772;27;20486;-59
2022/05/25 18:01:53;;;;;;;3.25;1.15;;;16.30;99.90;;;;;;21194089;27;20039;-59
2022/05/25 18:12:03;;;;;;;5.55;2.53;;;16.00;99.90;;;;;;21142025;27;20481;-59
2022/05/25 18:22:06;;;;;;;5.57;2.87;;;15.50;99.90;;;;;;21153978;27;20490;-61
2022/05/25 18:32:12;;;;;;;2.90;1.90;;;15.10;99.90;;;;;;21181251;27;20027;-61
2022/05/25 18:42:15;;;;;;;6.68;3.28;;;14.40;99.90;;;;;;21176695;27;20039;-61
2022/05/25 18:52:19;;;;;;;5.35;3.70;;;13.70;99.90;;;;;;21155770;27;20059;-54
2022/05/25 19:02:21;;;;;;;6.15;4.18;;;13.10;99.90;;;;;;21193923;27;20035;-61
2022/05/25 19:12:24;;;;;;;6.85;4.68;;;12.80;99.90;;;;;;21143176;27;20099;-60
2022/05/25 19:22:52;;;;;;;6.35;4.28;;;12.50;99.90;;;;;;21181101;27;20031;-59
2022/05/25 19:32:54;;;;;;;9.15;5.35;;;12.20;99.90;;;;;;21156539;27;20035;-53
2022/05/25 19:43:18;;;;;;;7.88;5.15;;;12.20;99.90;;;;;;21160860;28;20144;-59
2022/05/25 19:53:26;;;;;;;12.77;6.07;;;12.10;99.90;;;;;;21195940;27;20060;-59
2022/05/25 20:03:28;;;;;;;8.60;4.90;;;11.90;99.90;;;;;;21224356;27;20451;-59
2022/05/25 20:13:31;;;;;;;7.38;4.10;;;11.90;99.90;;;;;;21171389;27;20064;-58
2022/05/25 20:23:34;;;;;;;5.32;3.10;;;11.80;99.90;;;;;;21167236;27;20039;-58
2022/05/25 20:33:37;;;;;;;5.90;1.88;;;11.60;99.90;;;;;;21124956;28;20128;-58
2022/05/25 20:43:43;;;;;;;5.28;2.53;;;11.60;99.90;;;;;;21132248;27;20136;-58
2022/05/25 20:53:46;;;;;;;5.32;2.40;;;11.40;99.90;;;;;;21183827;27;20064;-53
2022/05/25 21:03:49;;;;;;;5.95;2.70;;;11.40;99.90;;;;;;21176363;27;20032;-60
2022/05/25 21:13:54;;;;;;;8.25;3.15;;;11.30;99.90;;;;;;21185595;27;20263;-58
2022/05/25 21:23:56;;;;;;;3.33;2.22;;;11.30;99.90;;;;;;21193017;27;20565;-54
2022/05/25 21:33:59;;;;;;;4.70;2.70;;;11.50;99.90;;;;;;21185170;27;20032;-54
2022/05/25 21:44:02;;;;;;;2.70;1.98;;;11.80;99.90;;;;;;21198578;27;20039;-53
2022/05/25 21:54:06;;;;;;;6.07;2.03;;;12.00;99.90;;;;;;21157729;27;20035;-52
2022/05/25 22:04:09;;;;;;;3.47;2.10;;;12.00;99.90;;;;;;21160291;27;20035;-58
2022/05/25 22:14:12;;;;;;;2.72;2.20;;;12.00;99.90;;;;;;21187145;27;20040;-58
2022/05/25 22:24:17;;;;;;;5.32;1.73;;;12.00;99.90;;;;;;21189785;27;20035;-53
2022/05/25 22:34:22;;;;;;;2.03;1.67;;;11.80;99.90;;;;;;21160434;27;20047;-55
2022/05/25 22:44:32;;;;;;;4.50;1.60;;;11.70;99.90;;;;;;21140285;27;20458;-54
2022/05/25 22:54:35;;;;;;;2.85;1.60;;;11.90;99.90;;;;;;21177930;27;20092;-60
2022/05/25 23:04:41;;;;;;;2.20;1.63;;;11.90;99.90;;;;;;21190916;27;20039;-60
2022/05/25 23:14:44;;;;;;;2.67;1.77;;;11.80;99.90;;;;;;21194293;27;20043;-60
2022/05/25 23:25:01;;;;;;;3.78;2.00;;;11.70;99.90;;;;;;21206198;28;20116;-54
2022/05/25 23:35:06;;;;;;;3.83;1.73;;;11.60;99.90;;;;;;21199902;28;20472;-60
2022/05/25 23:45:10;;;;;;;3.15;1.98;;;11.50;99.90;;;;;;21210456;28;20111;-54
2022/05/25 23:55:14;;;;;;;4.40;2.17;;;11.40;99.90;;;;;;21188500;28;20035;-55
